sensor_id;sensor_type;location;lat;lon;timestamp;P1;durP1;ratioP1;P2;durP2;ratioP2
19436;SDS011;9854;50.968;4.168;2023-07-20T00:01:03;11.35;;;4.82;;
19436;SDS011;9854;50.968;4.168;2023-07-20T00:03:29;11.13;;;4.72;;
19436;SDS011;9854;50.968;4.168;2023-07-20T00:05:54;9.18;;;5.25;;
19436;SDS011;9854;50.968;4.168;2023-07-20T00:08:20;11.55;;;5.05;;
19436;SDS011;9854;50.968;4.168;2023-07-20T00:10:45;9.90;;;5.35;;
19436;SDS011;9854;50.968;4.168;2023-07-20T00:13:11;12.48;;;5.70;;
19436;SDS011;9854;50.968;4.168;2023-07-20T00:15:37;11.30;;;5.22;;
19436;SDS011;9854;50.968;4.168;2023-07-20T00:18:06;12.02;;;5.70;;
19436;SDS011;9854;50.968;4.168;2023-07-20T00:20:31;8.55;;;5.07;;
19436;SDS011;9854;50.968;4.168;2023-07-20T00:22:57;16.25;;;5.88;;
19436;SDS011;9854;50.968;4.168;2023-07-20T00:25:24;11.00;;;5.05;;
19436;SDS011;9854;50.968;4.168;2023-07-20T00:27:50;14.15;;;5.32;;
19436;SDS011;9854;50.968;4.168;2023-07-20T00:30:15;11.48;;;5.20;;
19436;SDS011;9854;50.968;4.168;2023-07-20T00:32:44;13.00;;;5.22;;
19436;SDS011;9854;50.968;4.168;2023-07-20T00:35:10;7.85;;;5.15;;
19436;SDS011;9854;50.968;4.168;2023-07-20T00:37:36;9.98;;;5.43;;
19436;SDS011;9854;50.968;4.168;2023-07-20T00:40:02;9.18;;;5.63;;
19436;SDS011;9854;50.968;4.168;2023-07-20T00:42:32;13.27;;;5.18;;
19436;SDS011;9854;50.968;4.168;2023-07-20T00:44:58;13.73;;;5.90;;
19436;SDS011;9854;50.968;4.168;2023-07-20T00:47:24;11.70;;;6.07;;
19436;SDS011;9854;50.968;4.168;2023-07-20T00:49:50;12.90;;;5.57;;
19436;SDS011;9854;50.968;4.168;2023-07-20T00:52:16;13.43;;;5.55;;
19436;SDS011;9854;50.968;4.168;2023-07-20T00:54:45;13.52;;;5.40;;
19436;SDS011;9854;50.968;4.168;2023-07-20T00:57:12;12.43;;;5.97;;
19436;SDS011;9854;50.968;4.168;2023-07-20T00:59:39;15.40;;;6.45;;
19436;SDS011;9854;50.968;4.168;2023-07-20T01:02:05;13.35;;;6.40;;
19436;SDS011;9854;50.968;4.168;2023-07-20T01:04:31;12.35;;;5.57;;
19436;SDS011;9854;50.968;4.168;2023-07-20T01:06:59;17.83;;;6.57;;
19436;SDS011;9854;50.968;4.168;2023-07-20T01:09:48;10.85;;;6.30;;
19436;SDS011;9854;50.968;4.168;2023-07-20T01:12:30;14.23;;;6.00;;
19436;SDS011;9854;50.968;4.168;2023-07-20T01:15:03;12.23;;;6.47;;
19436;SDS011;9854;50.968;4.168;2023-07-20T01:17:29;17.08;;;6.78;;
19436;SDS011;9854;50.968;4.168;2023-07-20T01:19:55;18.77;;;7.00;;
19436;SDS011;9854;50.968;4.168;2023-07-20T01:22:27;18.65;;;7.00;;
19436;SDS011;9854;50.968;4.168;2023-07-20T01:33:41;21.30;;;8.38;;
19436;SDS011;9854;50.968;4.168;2023-07-20T01:36:10;16.45;;;8.07;;
19436;SDS011;9854;50.968;4.168;2023-07-20T01:38:36;15.35;;;8.10;;
19436;SDS011;9854;50.968;4.168;2023-07-20T01:41:02;12.93;;;8.00;;
19436;SDS011;9854;50.968;4.168;2023-07-20T01:43:28;17.73;;;8.80;;
19436;SDS011;9854;50.968;4.168;2023-07-20T01:45:54;17.75;;;8.48;;
19436;SDS011;9854;50.968;4.168;2023-07-20T01:48:20;15.52;;;8.65;;
19436;SDS011;9854;50.968;4.168;2023-07-20T01:50:45;20.33;;;8.25;;
19436;SDS011;9854;50.968;4.168;2023-07-20T01:53:11;15.80;;;9.18;;
19436;SDS011;9854;50.968;4.168;2023-07-20T01:55:37;14.35;;;8.82;;
19436;SDS011;9854;50.968;4.168;2023-07-20T01:58:02;23.42;;;9.23;;
19436;SDS011;9854;50.968;4.168;2023-07-20T02:00:28;19.58;;;8.57;;
19436;SDS011;9854;50.968;4.168;2023-07-20T02:02:54;16.58;;;9.43;;
19436;SDS011;9854;50.968;4.168;2023-07-20T02:05:20;19.42;;;10.43;;
19436;SDS011;9854;50.968;4.168;2023-07-20T02:07:45;22.90;;;9.90;;
19436;SDS011;9854;50.968;4.168;2023-07-20T02:10:11;25.67;;;9.88;;
19436;SDS011;9854;50.968;4.168;2023-07-20T02:12:37;24.85;;;10.55;;
19436;SDS011;9854;50.968;4.168;2023-07-20T02:15:03;23.50;;;10.95;;
19436;SDS011;9854;50.968;4.168;2023-07-20T02:17:29;23.33;;;10.77;;
19436;SDS011;9854;50.968;4.168;2023-07-20T02:19:55;22.17;;;10.40;;
19436;SDS011;9854;50.968;4.168;2023-07-20T02:22:22;25.77;;;11.90;;
19436;SDS011;9854;50.968;4.168;2023-07-20T02:24:48;22.02;;;11.35;;
19436;SDS011;9854;50.968;4.168;2023-07-20T02:27:15;23.20;;;10.75;;
19436;SDS011;9854;50.968;4.168;2023-07-20T02:29:41;23.80;;;11.98;;
19436;SDS011;9854;50.968;4.168;2023-07-20T02:32:07;21.67;;;11.13;;
19436;SDS011;9854;50.968;4.168;2023-07-20T02:34:34;26.08;;;11.85;;
19436;SDS011;9854;50.968;4.168;2023-07-20T02:37:00;28.27;;;12.02;;
19436;SDS011;9854;50.968;4.168;2023-07-20T02:39:29;23.73;;;12.25;;
19436;SDS011;9854;50.968;4.168;2023-07-20T02:41:55;21.85;;;11.15;;
19436;SDS011;9854;50.968;4.168;2023-07-20T02:44:21;26.02;;;11.57;;
19436;SDS011;9854;50.968;4.168;2023-07-20T02:46:47;29.00;;;12.10;;
19436;SDS011;9854;50.968;4.168;2023-07-20T02:49:14;16.98;;;11.20;;
19436;SDS011;9854;50.968;4.168;2023-07-20T02:51:40;23.65;;;12.25;;
19436;SDS011;9854;50.968;4.168;2023-07-20T02:54:06;24.00;;;12.25;;
19436;SDS011;9854;50.968;4.168;2023-07-20T02:56:32;23.40;;;11.70;;
19436;SDS011;9854;50.968;4.168;2023-07-20T02:58:57;23.27;;;11.73;;
19436;SDS011;9854;50.968;4.168;2023-07-20T03:01:23;17.35;;;11.90;;
19436;SDS011;9854;50.968;4.168;2023-07-20T03:03:48;22.25;;;12.27;;
19436;SDS011;9854;50.968;4.168;2023-07-20T03:06:14;22.83;;;12.18;;
19436;SDS011;9854;50.968;4.168;2023-07-20T03:08:41;23.10;;;12.25;;
19436;SDS011;9854;50.968;4.168;2023-07-20T03:11:12;24.00;;;12.65;;
19436;SDS011;9854;50.968;4.168;2023-07-20T03:13:39;17.30;;;11.15;;
19436;SDS011;9854;50.968;4.168;2023-07-20T03:16:06;20.83;;;12.63;;
19436;SDS011;9854;50.968;4.168;2023-07-20T03:18:36;23.85;;;13.15;;
19436;SDS011;9854;50.968;4.168;2023-07-20T03:21:05;22.63;;;12.75;;
19436;SDS011;9854;50.968;4.168;2023-07-20T03:23:31;18.60;;;12.27;;
19436;SDS011;9854;50.968;4.168;2023-07-20T03:25:57;21.95;;;12.40;;
19436;SDS011;9854;50.968;4.168;2023-07-20T03:28:22;25.83;;;12.82;;
19436;SDS011;9854;50.968;4.168;2023-07-20T03:30:55;19.00;;;12.20;;
19436;SDS011;9854;50.968;4.168;2023-07-20T03:33:22;19.83;;;12.95;;
19436;SDS011;9854;50.968;4.168;2023-07-20T03:35:50;20.85;;;13.13;;
19436;SDS011;9854;50.968;4.168;2023-07-20T03:38:15;27.08;;;12.73;;
19436;SDS011;9854;50.968;4.168;2023-07-20T03:40:48;20.95;;;12.73;;
19436;SDS011;9854;50.968;4.168;2023-07-20T03:43:15;16.63;;;11.30;;
19436;SDS011;9854;50.968;4.168;2023-07-20T03:45:40;22.23;;;12.63;;
19436;SDS011;9854;50.968;4.168;2023-07-20T03:48:06;17.52;;;13.05;;
19436;SDS011;9854;50.968;4.168;2023-07-20T03:50:31;20.95;;;12.07;;
19436;SDS011;9854;50.968;4.168;2023-07-20T03:52:58;20.27;;;12.63;;
19436;SDS011;9854;50.968;4.168;2023-07-20T03:55:23;22.58;;;13.25;;
19436;SDS011;9854;50.968;4.168;2023-07-20T03:57:49;27.85;;;13.18;;
19436;SDS011;9854;50.968;4.168;2023-07-20T04:00:16;19.15;;;12.77;;
19436;SDS011;9854;50.968;4.168;2023-07-20T04:02:42;23.33;;;13.52;;
19436;SDS011;9854;50.968;4.168;2023-07-20T04:05:08;28.10;;;13.65;;
19436;SDS011;9854;50.968;4.168;2023-07-20T04:07:33;21.45;;;13.05;;
19436;SDS011;9854;50.968;4.168;2023-07-20T04:09:59;19.23;;;14.35;;
19436;SDS011;9854;50.968;4.168;2023-07-20T04:12:25;21.13;;;13.40;;
19436;SDS011;9854;50.968;4.168;2023-07-20T04:14:50;27.30;;;13.55;;
19436;SDS011;9854;50.968;4.168;2023-07-20T04:17:16;19.80;;;13.60;;
19436;SDS011;9854;50.968;4.168;2023-07-20T04:19:43;23.17;;;14.15;;
19436;SDS011;9854;50.968;4.168;2023-07-20T04:22:09;22.95;;;12.65;;
19436;SDS011;9854;50.968;4.168;2023-07-20T04:24:35;20.13;;;12.68;;
19436;SDS011;9854;50.968;4.168;2023-07-20T04:27:00;23.15;;;13.38;;
19436;SDS011;9854;50.968;4.168;2023-07-20T04:29:26;26.20;;;12.65;;
19436;SDS011;9854;50.968;4.168;2023-07-20T04:31:52;22.45;;;12.95;;
19436;SDS011;9854;50.968;4.168;2023-07-20T04:34:17;23.15;;;13.45;;
19436;SDS011;9854;50.968;4.168;2023-07-20T04:36:43;16.73;;;13.45;;
19436;SDS011;9854;50.968;4.168;2023-07-20T04:39:09;20.55;;;14.07;;
19436;SDS011;9854;50.968;4.168;2023-07-20T04:41:35;18.15;;;13.95;;
19436;SDS011;9854;50.968;4.168;2023-07-20T04:44:01;23.20;;;12.68;;
19436;SDS011;9854;50.968;4.168;2023-07-20T04:46:27;23.92;;;13.63;;
19436;SDS011;9854;50.968;4.168;2023-07-20T04:48:52;18.02;;;12.90;;
19436;SDS011;9854;50.968;4.168;2023-07-20T04:51:18;20.85;;;12.30;;
19436;SDS011;9854;50.968;4.168;2023-07-20T04:53:46;18.25;;;12.98;;
19436;SDS011;9854;50.968;4.168;2023-07-20T04:56:12;18.15;;;12.95;;
19436;SDS011;9854;50.968;4.168;2023-07-20T04:58:38;21.77;;;13.57;;
19436;SDS011;9854;50.968;4.168;2023-07-20T05:01:04;18.38;;;12.25;;
19436;SDS011;9854;50.968;4.168;2023-07-20T05:03:29;21.85;;;13.45;;
19436;SDS011;9854;50.968;4.168;2023-07-20T05:05:55;16.17;;;12.57;;
19436;SDS011;9854;50.968;4.168;2023-07-20T05:08:21;20.50;;;13.50;;
19436;SDS011;9854;50.968;4.168;2023-07-20T05:10:50;18.70;;;13.48;;
19436;SDS011;9854;50.968;4.168;2023-07-20T05:13:16;17.02;;;12.75;;
19436;SDS011;9854;50.968;4.168;2023-07-20T05:15:42;17.48;;;13.43;;
19436;SDS011;9854;50.968;4.168;2023-07-20T05:18:07;23.30;;;12.70;;
19436;SDS011;9854;50.968;4.168;2023-07-20T05:20:36;20.25;;;12.20;;
19436;SDS011;9854;50.968;4.168;2023-07-20T05:23:02;20.20;;;12.45;;
19436;SDS011;9854;50.968;4.168;2023-07-20T05:25:28;17.30;;;12.30;;
19436;SDS011;9854;50.968;4.168;2023-07-20T05:27:53;18.05;;;12.70;;
19436;SDS011;9854;50.968;4.168;2023-07-20T05:30:20;18.48;;;12.30;;
19436;SDS011;9854;50.968;4.168;2023-07-20T05:32:46;18.10;;;12.68;;
19436;SDS011;9854;50.968;4.168;2023-07-20T05:35:16;18.52;;;12.75;;
19436;SDS011;9854;50.968;4.168;2023-07-20T05:37:45;15.35;;;11.48;;
19436;SDS011;9854;50.968;4.168;2023-07-20T05:40:11;15.95;;;12.32;;
19436;SDS011;9854;50.968;4.168;2023-07-20T05:42:40;18.98;;;12.18;;
19436;SDS011;9854;50.968;4.168;2023-07-20T05:45:06;23.90;;;12.02;;
19436;SDS011;9854;50.968;4.168;2023-07-20T05:47:32;15.88;;;12.00;;
19436;SDS011;9854;50.968;4.168;2023-07-20T05:49:58;16.83;;;11.35;;
19436;SDS011;9854;50.968;4.168;2023-07-20T05:52:24;20.52;;;11.85;;
19436;SDS011;9854;50.968;4.168;2023-07-20T05:54:49;18.98;;;11.07;;
19436;SDS011;9854;50.968;4.168;2023-07-20T05:57:15;14.82;;;11.55;;
19436;SDS011;9854;50.968;4.168;2023-07-20T05:59:41;16.52;;;11.57;;
19436;SDS011;9854;50.968;4.168;2023-07-20T06:02:09;21.30;;;11.43;;
19436;SDS011;9854;50.968;4.168;2023-07-20T06:04:35;16.33;;;11.13;;
19436;SDS011;9854;50.968;4.168;2023-07-20T06:07:01;12.25;;;10.82;;
19436;SDS011;9854;50.968;4.168;2023-07-20T06:09:27;10.77;;;9.60;;
19436;SDS011;9854;50.968;4.168;2023-07-20T06:11:53;15.88;;;10.27;;
19436;SDS011;9854;50.968;4.168;2023-07-20T06:14:18;14.43;;;10.65;;
19436;SDS011;9854;50.968;4.168;2023-07-20T06:16:44;19.20;;;11.18;;
19436;SDS011;9854;50.968;4.168;2023-07-20T06:19:10;11.30;;;9.57;;
19436;SDS011;9854;50.968;4.168;2023-07-20T06:21:38;14.65;;;10.00;;
19436;SDS011;9854;50.968;4.168;2023-07-20T06:24:05;13.73;;;9.05;;
19436;SDS011;9854;50.968;4.168;2023-07-20T06:26:31;12.80;;;7.85;;
19436;SDS011;9854;50.968;4.168;2023-07-20T06:29:03;9.43;;;8.10;;
19436;SDS011;9854;50.968;4.168;2023-07-20T06:31:28;8.45;;;7.55;;
19436;SDS011;9854;50.968;4.168;2023-07-20T06:33:54;11.82;;;8.25;;
19436;SDS011;9854;50.968;4.168;2023-07-20T06:36:20;9.73;;;7.45;;
19436;SDS011;9854;50.968;4.168;2023-07-20T06:38:45;8.82;;;7.53;;
19436;SDS011;9854;50.968;4.168;2023-07-20T06:41:11;8.88;;;7.05;;
19436;SDS011;9854;50.968;4.168;2023-07-20T06:43:37;6.88;;;6.18;;
19436;SDS011;9854;50.968;4.168;2023-07-20T06:46:03;7.47;;;6.70;;
19436;SDS011;9854;50.968;4.168;2023-07-20T06:48:28;11.60;;;7.60;;
19436;SDS011;9854;50.968;4.168;2023-07-20T06:50:54;10.15;;;6.18;;
19436;SDS011;9854;50.968;4.168;2023-07-20T06:53:20;9.15;;;6.85;;
19436;SDS011;9854;50.968;4.168;2023-07-20T06:55:46;8.02;;;6.47;;
19436;SDS011;9854;50.968;4.168;2023-07-20T06:58:11;6.40;;;5.80;;
19436;SDS011;9854;50.968;4.168;2023-07-20T07:00:37;6.47;;;5.15;;
19436;SDS011;9854;50.968;4.168;2023-07-20T07:03:03;8.18;;;5.32;;
19436;SDS011;9854;50.968;4.168;2023-07-20T07:05:28;8.65;;;4.95;;
19436;SDS011;9854;50.968;4.168;2023-07-20T07:07:54;4.53;;;3.50;;
19436;SDS011;9854;50.968;4.168;2023-07-20T07:10:20;4.35;;;3.20;;
19436;SDS011;9854;50.968;4.168;2023-07-20T07:12:45;5.63;;;3.65;;
19436;SDS011;9854;50.968;4.168;2023-07-20T07:15:11;4.78;;;3.55;;
19436;SDS011;9854;50.968;4.168;2023-07-20T07:17:37;6.45;;;3.33;;
19436;SDS011;9854;50.968;4.168;2023-07-20T07:20:03;6.70;;;3.28;;
19436;SDS011;9854;50.968;4.168;2023-07-20T07:22:29;3.47;;;3.13;;
19436;SDS011;9854;50.968;4.168;2023-07-20T07:24:55;3.90;;;3.22;;
19436;SDS011;9854;50.968;4.168;2023-07-20T07:27:21;3.72;;;3.42;;
19436;SDS011;9854;50.968;4.168;2023-07-20T07:29:46;5.78;;;3.42;;
19436;SDS011;9854;50.968;4.168;2023-07-20T07:32:13;5.80;;;2.35;;
19436;SDS011;9854;50.968;4.168;2023-07-20T07:34:40;4.55;;;2.97;;
19436;SDS011;9854;50.968;4.168;2023-07-20T07:37:05;3.50;;;3.10;;
19436;SDS011;9854;50.968;4.168;2023-07-20T07:39:31;3.38;;;2.90;;
19436;SDS011;9854;50.968;4.168;2023-07-20T07:41:57;3.17;;;2.72;;
19436;SDS011;9854;50.968;4.168;2023-07-20T07:44:23;4.25;;;2.70;;
19436;SDS011;9854;50.968;4.168;2023-07-20T07:46:48;4.85;;;2.50;;
19436;SDS011;9854;50.968;4.168;2023-07-20T07:49:15;2.28;;;1.95;;
19436;SDS011;9854;50.968;4.168;2023-07-20T07:51:41;2.00;;;1.60;;
19436;SDS011;9854;50.968;4.168;2023-07-20T07:54:07;1.35;;;1.25;;
19436;SDS011;9854;50.968;4.168;2023-07-20T07:56:32;2.45;;;1.67;;
19436;SDS011;9854;50.968;4.168;2023-07-20T07:58:58;1.27;;;1.17;;
19436;SDS011;9854;50.968;4.168;2023-07-20T08:01:24;2.47;;;1.20;;
19436;SDS011;9854;50.968;4.168;2023-07-20T08:03:50;2.63;;;1.40;;
19436;SDS011;9854;50.968;4.168;2023-07-20T08:06:16;3.58;;;1.63;;
19436;SDS011;9854;50.968;4.168;2023-07-20T08:08:42;1.95;;;1.70;;
19436;SDS011;9854;50.968;4.168;2023-07-20T08:11:07;2.47;;;1.40;;
19436;SDS011;9854;50.968;4.168;2023-07-20T08:13:34;3.28;;;1.70;;
19436;SDS011;9854;50.968;4.168;2023-07-20T08:16:00;3.75;;;1.52;;
19436;SDS011;9854;50.968;4.168;2023-07-20T08:18:27;1.90;;;1.42;;
19436;SDS011;9854;50.968;4.168;2023-07-20T08:20:52;2.33;;;1.65;;
19436;SDS011;9854;50.968;4.168;2023-07-20T08:23:19;1.95;;;1.20;;
19436;SDS011;9854;50.968;4.168;2023-07-20T08:25:44;2.00;;;1.33;;
19436;SDS011;9854;50.968;4.168;2023-07-20T08:28:11;1.52;;;1.38;;
19436;SDS011;9854;50.968;4.168;2023-07-20T08:30:42;2.38;;;1.60;;
19436;SDS011;9854;50.968;4.168;2023-07-20T08:33:09;1.45;;;1.35;;
19436;SDS011;9854;50.968;4.168;2023-07-20T08:35:36;3.95;;;1.60;;
19436;SDS011;9854;50.968;4.168;2023-07-20T08:38:02;1.35;;;1.25;;
19436;SDS011;9854;50.968;4.168;2023-07-20T08:40:29;1.77;;;1.42;;
19436;SDS011;9854;50.968;4.168;2023-07-20T08:42:59;2.15;;;1.40;;
19436;SDS011;9854;50.968;4.168;2023-07-20T08:45:28;2.28;;;1.60;;
19436;SDS011;9854;50.968;4.168;2023-07-20T08:48:00;1.40;;;1.30;;
19436;SDS011;9854;50.968;4.168;2023-07-20T08:50:30;2.00;;;1.30;;
19436;SDS011;9854;50.968;4.168;2023-07-20T08:52:57;1.30;;;1.15;;
19436;SDS011;9854;50.968;4.168;2023-07-20T08:55:23;1.45;;;1.27;;
19436;SDS011;9854;50.968;4.168;2023-07-20T08:57:51;1.20;;;1.10;;
19436;SDS011;9854;50.968;4.168;2023-07-20T09:00:25;1.45;;;1.05;;
19436;SDS011;9854;50.968;4.168;2023-07-20T09:02:55;1.40;;;1.10;;
19436;SDS011;9854;50.968;4.168;2023-07-20T09:05:22;6.85;;;1.98;;
19436;SDS011;9854;50.968;4.168;2023-07-20T09:07:49;1.40;;;1.30;;
19436;SDS011;9854;50.968;4.168;2023-07-20T09:10:16;1.50;;;1.25;;
19436;SDS011;9854;50.968;4.168;2023-07-20T09:12:42;1.52;;;1.20;;
19436;SDS011;9854;50.968;4.168;2023-07-20T09:15:09;2.45;;;0.98;;
19436;SDS011;9854;50.968;4.168;2023-07-20T09:17:36;2.55;;;1.15;;
19436;SDS011;9854;50.968;4.168;2023-07-20T09:20:05;1.73;;;1.10;;
19436;SDS011;9854;50.968;4.168;2023-07-20T09:22:36;1.30;;;1.23;;
19436;SDS011;9854;50.968;4.168;2023-07-20T09:25:07;1.05;;;0.90;;
19436;SDS011;9854;50.968;4.168;2023-07-20T09:27:39;1.48;;;1.00;;
19436;SDS011;9854;50.968;4.168;2023-07-20T09:30:07;2.22;;;0.90;;
19436;SDS011;9854;50.968;4.168;2023-07-20T09:32:40;1.67;;;1.02;;
19436;SDS011;9854;50.968;4.168;2023-07-20T09:35:12;1.20;;;0.85;;
19436;SDS011;9854;50.968;4.168;2023-07-20T09:37:54;2.20;;;1.55;;
19436;SDS011;9854;50.968;4.168;2023-07-20T09:40:20;1.80;;;1.52;;
19436;SDS011;9854;50.968;4.168;2023-07-20T09:42:46;2.25;;;1.20;;
19436;SDS011;9854;50.968;4.168;2023-07-20T09:45:13;1.83;;;1.05;;
19436;SDS011;9854;50.968;4.168;2023-07-20T09:47:39;4.90;;;1.27;;
19436;SDS011;9854;50.968;4.168;2023-07-20T09:50:06;1.13;;;0.90;;
19436;SDS011;9854;50.968;4.168;2023-07-20T09:52:39;1.10;;;1.00;;
19436;SDS011;9854;50.968;4.168;2023-07-20T09:55:06;1.80;;;1.35;;
19436;SDS011;9854;50.968;4.168;2023-07-20T09:57:33;3.05;;;1.15;;
19436;SDS011;9854;50.968;4.168;2023-07-20T09:59:59;1.30;;;1.08;;
19436;SDS011;9854;50.968;4.168;2023-07-20T10:02:29;1.13;;;1.00;;
19436;SDS011;9854;50.968;4.168;2023-07-20T10:04:58;1.98;;;1.30;;
19436;SDS011;9854;50.968;4.168;2023-07-20T10:07:29;1.20;;;1.02;;
19436;SDS011;9854;50.968;4.168;2023-07-20T10:09:55;1.30;;;1.00;;
19436;SDS011;9854;50.968;4.168;2023-07-20T10:12:24;1.17;;;1.05;;
19436;SDS011;9854;50.968;4.168;2023-07-20T10:17:49;1.45;;;0.90;;
19436;SDS011;9854;50.968;4.168;2023-07-20T10:20:23;1.90;;;1.30;;
19436;SDS011;9854;50.968;4.168;2023-07-20T10:22:50;1.23;;;0.82;;
19436;SDS011;9854;50.968;4.168;2023-07-20T10:25:20;2.20;;;0.93;;
19436;SDS011;9854;50.968;4.168;2023-07-20T10:27:49;1.27;;;0.90;;
19436;SDS011;9854;50.968;4.168;2023-07-20T10:30:15;2.20;;;0.73;;
19436;SDS011;9854;50.968;4.168;2023-07-20T10:32:42;2.00;;;1.10;;
19436;SDS011;9854;50.968;4.168;2023-07-20T10:35:12;5.10;;;1.25;;
19436;SDS011;9854;50.968;4.168;2023-07-20T10:43:03;1.77;;;1.00;;
19436;SDS011;9854;50.968;4.168;2023-07-20T10:45:36;1.35;;;0.90;;
19436;SDS011;9854;50.968;4.168;2023-07-20T10:48:14;1.33;;;0.85;;
19436;SDS011;9854;50.968;4.168;2023-07-20T10:50:41;1.20;;;1.00;;
19436;SDS011;9854;50.968;4.168;2023-07-20T10:53:15;2.47;;;1.50;;
19436;SDS011;9854;50.968;4.168;2023-07-20T10:55:42;2.15;;;0.90;;
19436;SDS011;9854;50.968;4.168;2023-07-20T10:58:09;1.65;;;1.20;;
19436;SDS011;9854;50.968;4.168;2023-07-20T11:00:36;1.63;;;1.10;;
19436;SDS011;9854;50.968;4.168;2023-07-20T11:03:02;1.55;;;1.00;;
19436;SDS011;9854;50.968;4.168;2023-07-20T11:05:34;1.27;;;1.17;;
19436;SDS011;9854;50.968;4.168;2023-07-20T11:08:37;1.83;;;1.15;;
19436;SDS011;9854;50.968;4.168;2023-07-20T11:11:21;1.67;;;1.13;;
19436;SDS011;9854;50.968;4.168;2023-07-20T11:13:56;0.98;;;0.88;;
19436;SDS011;9854;50.968;4.168;2023-07-20T11:16:36;1.10;;;1.00;;
19436;SDS011;9854;50.968;4.168;2023-07-20T11:19:03;1.48;;;1.00;;
19436;SDS011;9854;50.968;4.168;2023-07-20T11:21:34;5.20;;;1.10;;
19436;SDS011;9854;50.968;4.168;2023-07-20T11:24:05;1.77;;;1.00;;
19436;SDS011;9854;50.968;4.168;2023-07-20T11:26:39;1.55;;;0.98;;
19436;SDS011;9854;50.968;4.168;2023-07-20T11:29:05;1.20;;;0.88;;
19436;SDS011;9854;50.968;4.168;2023-07-20T11:31:34;1.20;;;0.82;;
19436;SDS011;9854;50.968;4.168;2023-07-20T11:34:00;1.00;;;0.80;;
19436;SDS011;9854;50.968;4.168;2023-07-20T11:36:26;2.25;;;1.20;;
19436;SDS011;9854;50.968;4.168;2023-07-20T11:38:52;0.60;;;0.60;;
19436;SDS011;9854;50.968;4.168;2023-07-20T11:41:19;3.97;;;1.45;;
19436;SDS011;9854;50.968;4.168;2023-07-20T11:43:45;1.42;;;0.95;;
19436;SDS011;9854;50.968;4.168;2023-07-20T11:46:10;5.93;;;0.90;;
19436;SDS011;9854;50.968;4.168;2023-07-20T11:48:36;1.70;;;0.90;;
19436;SDS011;9854;50.968;4.168;2023-07-20T11:51:02;1.95;;;1.00;;
19436;SDS011;9854;50.968;4.168;2023-07-20T11:53:27;1.50;;;0.93;;
19436;SDS011;9854;50.968;4.168;2023-07-20T11:55:54;0.90;;;0.90;;
19436;SDS011;9854;50.968;4.168;2023-07-20T11:58:20;1.85;;;1.00;;
19436;SDS011;9854;50.968;4.168;2023-07-20T12:00:47;3.85;;;1.08;;
19436;SDS011;9854;50.968;4.168;2023-07-20T12:03:13;1.65;;;0.93;;
19436;SDS011;9854;50.968;4.168;2023-07-20T12:05:38;2.30;;;1.20;;
19436;SDS011;9854;50.968;4.168;2023-07-20T12:08:04;1.27;;;1.17;;
19436;SDS011;9854;50.968;4.168;2023-07-20T12:10:30;1.60;;;0.88;;
19436;SDS011;9854;50.968;4.168;2023-07-20T12:13:02;1.50;;;1.00;;
19436;SDS011;9854;50.968;4.168;2023-07-20T12:15:29;2.55;;;0.82;;
19436;SDS011;9854;50.968;4.168;2023-07-20T12:17:58;1.80;;;1.00;;
19436;SDS011;9854;50.968;4.168;2023-07-20T12:20:29;3.28;;;1.05;;
19436;SDS011;9854;50.968;4.168;2023-07-20T12:22:56;2.63;;;1.13;;
19436;SDS011;9854;50.968;4.168;2023-07-20T12:25:23;1.17;;;0.85;;
19436;SDS011;9854;50.968;4.168;2023-07-20T12:27:59;4.22;;;1.25;;
19436;SDS011;9854;50.968;4.168;2023-07-20T12:30:27;2.20;;;1.20;;
19436;SDS011;9854;50.968;4.168;2023-07-20T12:32:53;1.65;;;1.23;;
19436;SDS011;9854;50.968;4.168;2023-07-20T12:35:18;2.10;;;1.20;;
19436;SDS011;9854;50.968;4.168;2023-07-20T12:37:44;2.03;;;1.60;;
19436;SDS011;9854;50.968;4.168;2023-07-20T12:40:13;4.72;;;1.20;;
19436;SDS011;9854;50.968;4.168;2023-07-20T12:42:39;1.25;;;1.00;;
19436;SDS011;9854;50.968;4.168;2023-07-20T12:45:05;1.80;;;1.02;;
19436;SDS011;9854;50.968;4.168;2023-07-20T12:47:31;4.25;;;1.20;;
19436;SDS011;9854;50.968;4.168;2023-07-20T12:49:57;2.15;;;1.10;;
19436;SDS011;9854;50.968;4.168;2023-07-20T12:52:22;4.32;;;1.05;;
19436;SDS011;9854;50.968;4.168;2023-07-20T12:54:48;1.85;;;1.30;;
19436;SDS011;9854;50.968;4.168;2023-07-20T12:57:13;3.20;;;1.13;;
19436;SDS011;9854;50.968;4.168;2023-07-20T12:59:39;2.40;;;1.02;;
19436;SDS011;9854;50.968;4.168;2023-07-20T13:02:05;1.50;;;1.20;;
19436;SDS011;9854;50.968;4.168;2023-07-20T13:04:31;3.53;;;1.40;;
19436;SDS011;9854;50.968;4.168;2023-07-20T13:06:57;5.82;;;1.60;;
19436;SDS011;9854;50.968;4.168;2023-07-20T13:09:23;1.77;;;1.55;;
19436;SDS011;9854;50.968;4.168;2023-07-20T13:11:50;3.15;;;1.73;;
19436;SDS011;9854;50.968;4.168;2023-07-20T13:14:16;4.30;;;1.90;;
19436;SDS011;9854;50.968;4.168;2023-07-20T13:16:42;2.55;;;1.60;;
19436;SDS011;9854;50.968;4.168;2023-07-20T13:19:07;2.53;;;1.65;;
19436;SDS011;9854;50.968;4.168;2023-07-20T13:21:33;3.28;;;1.70;;
19436;SDS011;9854;50.968;4.168;2023-07-20T13:23:59;1.90;;;1.70;;
19436;SDS011;9854;50.968;4.168;2023-07-20T13:26:24;4.47;;;1.73;;
19436;SDS011;9854;50.968;4.168;2023-07-20T13:28:50;3.40;;;1.63;;
19436;SDS011;9854;50.968;4.168;2023-07-20T13:31:16;4.97;;;2.05;;
19436;SDS011;9854;50.968;4.168;2023-07-20T13:33:42;2.08;;;1.50;;
19436;SDS011;9854;50.968;4.168;2023-07-20T13:36:08;4.30;;;1.77;;
19436;SDS011;9854;50.968;4.168;2023-07-20T13:38:33;3.25;;;1.58;;
19436;SDS011;9854;50.968;4.168;2023-07-20T13:40:59;1.70;;;1.50;;
19436;SDS011;9854;50.968;4.168;2023-07-20T13:43:24;3.78;;;1.77;;
19436;SDS011;9854;50.968;4.168;2023-07-20T13:45:50;2.55;;;1.27;;
19436;SDS011;9854;50.968;4.168;2023-07-20T13:48:16;1.33;;;1.17;;
19436;SDS011;9854;50.968;4.168;2023-07-20T13:50:44;1.73;;;1.13;;
19436;SDS011;9854;50.968;4.168;2023-07-20T13:53:10;2.03;;;0.80;;
19436;SDS011;9854;50.968;4.168;2023-07-20T13:55:36;2.05;;;0.95;;
19436;SDS011;9854;50.968;4.168;2023-07-20T13:58:03;1.23;;;0.90;;
19436;SDS011;9854;50.968;4.168;2023-07-20T14:00:29;1.35;;;0.52;;
19436;SDS011;9854;50.968;4.168;2023-07-20T14:02:58;0.50;;;0.50;;
19436;SDS011;9854;50.968;4.168;2023-07-20T14:05:24;0.90;;;0.52;;
19436;SDS011;9854;50.968;4.168;2023-07-20T14:07:50;1.25;;;0.80;;
19436;SDS011;9854;50.968;4.168;2023-07-20T14:10:16;1.67;;;0.90;;
19436;SDS011;9854;50.968;4.168;2023-07-20T14:12:42;2.28;;;0.80;;
19436;SDS011;9854;50.968;4.168;2023-07-20T14:15:07;3.63;;;0.60;;
19436;SDS011;9854;50.968;4.168;2023-07-20T14:17:34;1.48;;;0.80;;
19436;SDS011;9854;50.968;4.168;2023-07-20T14:20:00;1.45;;;0.82;;
19436;SDS011;9854;50.968;4.168;2023-07-20T14:22:26;1.48;;;0.90;;
19436;SDS011;9854;50.968;4.168;2023-07-20T14:24:51;1.85;;;0.70;;
19436;SDS011;9854;50.968;4.168;2023-07-20T14:27:17;2.67;;;0.93;;
19436;SDS011;9854;50.968;4.168;2023-07-20T14:29:42;2.25;;;0.70;;
19436;SDS011;9854;50.968;4.168;2023-07-20T14:32:08;2.97;;;0.80;;
19436;SDS011;9854;50.968;4.168;2023-07-20T14:34:34;1.20;;;0.80;;
19436;SDS011;9854;50.968;4.168;2023-07-20T14:36:59;1.83;;;0.85;;
19436;SDS011;9854;50.968;4.168;2023-07-20T14:39:25;2.78;;;0.60;;
19436;SDS011;9854;50.968;4.168;2023-07-20T14:41:51;0.80;;;0.50;;
19436;SDS011;9854;50.968;4.168;2023-07-20T14:44:17;2.22;;;0.90;;
19436;SDS011;9854;50.968;4.168;2023-07-20T14:46:43;1.00;;;0.77;;
19436;SDS011;9854;50.968;4.168;2023-07-20T14:49:08;0.80;;;0.65;;
19436;SDS011;9854;50.968;4.168;2023-07-20T14:51:35;2.40;;;0.73;;
19436;SDS011;9854;50.968;4.168;2023-07-20T14:54:07;2.28;;;0.88;;
19436;SDS011;9854;50.968;4.168;2023-07-20T14:56:33;1.52;;;0.82;;
19436;SDS011;9854;50.968;4.168;2023-07-20T14:58:59;1.33;;;0.80;;
19436;SDS011;9854;50.968;4.168;2023-07-20T15:01:25;1.08;;;0.63;;
19436;SDS011;9854;50.968;4.168;2023-07-20T15:03:51;2.08;;;0.70;;
19436;SDS011;9854;50.968;4.168;2023-07-20T15:06:18;1.05;;;0.75;;
19436;SDS011;9854;50.968;4.168;2023-07-20T15:08:44;2.33;;;1.10;;